Time;durP1;ratioP1;P1;durP2;ratioP2;P2;SDS_P1;SDS_P2;PMS_P1;PMS_P2;Temp;Humidity;BMP_temperature;BMP_pressure;BME280_temperature;BME280_humidity;BME280_pressure;Samples;Min_cycle;Max_cycle;Signal;HPM_P1;HPM_P2
2023/06/18 00:00:22;;;;;;;9.23;4.63;;;;;;;18.92;86.65;101151.84;6225043;28;20449;-73
2023/06/18 00:03:23;;;;;;;9.15;4.40;;;;;;;18.87;87.71;101148.72;6225563;28;20054;-73
2023/06/18 00:06:25;;;;;;;7.97;4.40;;;;;;;18.85;87.18;101147.97;6225760;28;20466;-73
2023/06/18 00:09:26;;;;;;;9.38;4.80;;;;;;;18.85;87.46;101143.53;6225675;28;20057;-73
2023/06/18 00:12:29;;;;;;;7.03;4.28;;;;;;;18.85;87.75;101145.31;6224673;28;20336;-73
2023/06/18 00:15:32;;;;;;;8.35;4.53;;;;;;;18.78;88.08;101138.81;6226842;28;20381;-73
2023/06/18 00:18:34;;;;;;;11.38;5.10;;;;;;;18.79;88.19;101145.84;6229956;28;20461;-73
2023/06/18 00:21:37;;;;;;;7.30;4.38;;;;;;;18.75;87.99;101142.56;6229549;28;20173;-73
2023/06/18 00:24:39;;;;;;;7.43;4.53;;;;;;;18.69;88.36;101146.59;6229373;28;20054;-73
2023/06/18 00:27:43;;;;;;;10.98;5.07;;;;;;;18.61;89.59;101143.66;6229991;28;20042;-73
2023/06/18 00:30:44;;;;;;;10.82;5.30;;;;;;;18.60;89.49;101146.44;6229119;28;20421;-73
2023/06/18 00:33:45;;;;;;;8.52;4.85;;;;;;;18.56;90.09;101150.31;6229659;28;20049;-73
2023/06/18 00:36:50;;;;;;;10.93;4.70;;;;;;;18.50;90.00;101146.34;6229772;28;20045;-73
2023/06/18 00:39:51;;;;;;;6.53;4.53;;;;;;;18.47;90.42;101139.44;6229759;28;20050;-73
2023/06/18 00:42:55;;;;;;;9.85;5.95;;;;;;;18.41;90.58;101139.09;6228679;28;20359;-73
2023/06/18 00:45:59;;;;;;;9.23;4.55;;;;;;;18.35;91.54;101142.22;6229446;28;20115;-73
2023/06/18 00:49:01;;;;;;;8.48;4.72;;;;;;;18.28;91.73;101136.56;6224422;28;20136;-72
2023/06/18 00:52:03;;;;;;;10.75;5.20;;;;;;;18.25;91.55;101142.13;6228633;28;20050;-73
2023/06/18 00:55:05;;;;;;;9.15;5.00;;;;;;;18.20;91.58;101133.66;6229005;28;20050;-73
2023/06/18 00:58:08;;;;;;;9.13;4.85;;;;;;;18.17;91.46;101125.94;6229235;28;20042;-74
2023/06/18 01:01:10;;;;;;;10.05;5.00;;;;;;;18.08;91.49;101138.16;6228568;28;20438;-74
2023/06/18 01:04:12;;;;;;;10.27;5.15;;;;;;;18.05;91.44;101137.53;6228993;28;20427;-74
2023/06/18 01:07:13;;;;;;;14.63;5.22;;;;;;;18.06;91.33;101133.91;6229079;28;20096;-73
2023/06/18 01:10:16;;;;;;;12.27;5.00;;;;;;;17.93;91.89;101140.19;6228278;28;20058;-73
2023/06/18 01:13:19;;;;;;;14.07;5.00;;;;;;;17.87;92.87;101138.00;6228787;28;20351;-74
2023/06/18 01:16:23;;;;;;;10.85;5.53;;;;;;;17.87;93.41;101135.34;6228904;28;20447;-74
2023/06/18 01:19:51;;;;;;;9.38;5.05;;;;;;;17.73;93.37;101125.78;6230345;28;20378;-74
2023/06/18 01:22:59;;;;;;;9.38;5.25;;;;;;;17.69;94.52;101132.28;6252438;28;20114;-74
2023/06/18 01:26:01;;;;;;;9.75;5.65;;;;;;;17.63;93.87;101134.56;6233457;28;20041;-74
2023/06/18 01:29:09;;;;;;;11.18;5.32;;;;;;;17.64;94.46;101134.44;6228446;28;20123;-73
2023/06/18 01:32:11;;;;;;;12.25;4.82;;;;;;;17.65;94.59;101133.47;6227977;28;20085;-74
2023/06/18 01:35:14;;;;;;;12.35;4.65;;;;;;;17.58;95.56;101139.41;6228249;28;20046;-74
2023/06/18 01:38:31;;;;;;;11.38;4.53;;;;;;;17.60;95.31;101134.78;6228535;28;20057;-74
2023/06/18 01:41:37;;;;;;;12.32;4.80;;;;;;;17.60;95.10;101137.44;6227640;28;20050;-74
2023/06/18 01:44:42;;;;;;;8.13;4.82;;;;;;;17.57;95.05;101137.69;6228098;28;20050;-73
2023/06/18 01:47:45;;;;;;;10.95;5.25;;;;;;;17.50;95.13;101137.31;6228093;28;20046;-73
2023/06/18 01:50:49;;;;;;;9.65;5.50;;;;;;;17.33;96.88;101143.91;6227163;28;20057;-73
2023/06/18 01:53:53;;;;;;;8.82;5.47;;;;;;;17.30;97.63;101146.78;6224691;28;20044;-74
2023/06/18 01:56:55;;;;;;;12.48;5.45;;;;;;;17.27;97.45;101146.19;6227301;28;20371;-73
2023/06/18 01:59:57;;;;;;;12.07;5.05;;;;;;;17.26;98.02;101153.31;6227134;28;20362;-74
2023/06/18 02:02:59;;;;;;;12.20;5.82;;;;;;;17.23;97.19;101151.72;6227636;28;20354;-74
2023/06/18 02:06:01;;;;;;;9.95;5.10;;;;;;;17.18;97.55;101153.03;6227639;28;20049;-74
2023/06/18 02:09:02;;;;;;;7.68;4.70;;;;;;;17.20;98.17;101151.94;6227038;28;20057;-74
2023/06/18 02:12:05;;;;;;;11.00;5.35;;;;;;;17.23;97.58;101156.19;6226945;28;20447;-73
2023/06/18 02:15:08;;;;;;;11.23;5.55;;;;;;;17.16;97.75;101152.28;6227274;28;20050;-73
2023/06/18 02:18:11;;;;;;;12.15;5.18;;;;;;;17.14;98.37;101156.88;6227571;28;20042;-74
2023/06/18 02:21:13;;;;;;;9.13;5.32;;;;;;;17.06;98.47;101154.78;6226616;28;20065;-74
2023/06/18 02:24:15;;;;;;;7.82;4.93;;;;;;;17.04;98.06;101158.50;6227209;28;20050;-73
2023/06/18 02:27:16;;;;;;;8.73;5.05;;;;;;;16.91;98.38;101161.22;6227131;28;20045;-73
2023/06/18 02:30:19;;;;;;;8.88;4.93;;;;;;;16.81;99.78;101158.41;6226690;28;20378;-74
2023/06/18 02:33:20;;;;;;;9.98;5.43;;;;;;;16.71;100.00;101154.66;6226975;28;20481;-74
2023/06/18 02:36:22;;;;;;;10.93;5.18;;;;;;;16.73;100.00;101150.13;6227181;28;20049;-73
2023/06/18 02:39:24;;;;;;;11.23;5.15;;;;;;;16.74;100.00;101159.78;6226284;28;20085;-74
2023/06/18 02:42:25;;;;;;;12.70;5.45;;;;;;;16.75;100.00;101153.50;6226035;28;20054;-73
2023/06/18 02:45:28;;;;;;;9.52;5.80;;;;;;;16.70;100.00;101156.47;6226603;28;20046;-74
2023/06/18 02:48:30;;;;;;;9.70;5.00;;;;;;;16.69;100.00;101152.13;6226514;28;20075;-74
2023/06/18 02:51:31;;;;;;;9.35;5.35;;;;;;;16.65;100.00;101149.81;6223698;28;20056;-74
2023/06/18 02:54:33;;;;;;;13.15;6.18;;;;;;;16.64;100.00;101146.31;6226420;28;20050;-74
2023/06/18 02:57:34;;;;;;;13.70;5.40;;;;;;;16.63;100.00;101143.78;6226598;28;20049;-74
2023/06/18 03:00:37;;;;;;;8.27;5.32;;;;;;;16.58;100.00;101141.47;6225197;28;20046;-73
2023/06/18 03:03:38;;;;;;;10.15;5.90;;;;;;;16.48;100.00;101135.09;6235812;28;20056;-74
2023/06/18 03:06:40;;;;;;;10.75;5.72;;;;;;;16.45;100.00;101144.13;6250418;28;20046;-74
2023/06/18 03:09:41;;;;;;;16.25;6.00;;;;;;;16.45;100.00;101148.59;6250671;28;20049;-74
2023/06/18 03:12:43;;;;;;;11.80;5.38;;;;;;;16.43;100.00;101148.69;6249758;28;20445;-74
2023/06/18 03:15:45;;;;;;;19.50;5.80;;;;;;;16.43;100.00;101146.03;6250575;28;20052;-74
2023/06/18 03:18:47;;;;;;;8.10;5.15;;;;;;;16.40;100.00;101145.44;6250433;28;20047;-74
2023/06/18 03:21:48;;;;;;;9.80;5.50;;;;;;;16.32;100.00;101142.47;6249626;28;20448;-74
2023/06/18 03:24:50;;;;;;;12.45;5.88;;;;;;;16.32;100.00;101142.47;6240838;28;20053;-73
2023/06/18 03:27:51;;;;;;;10.73;5.60;;;;;;;16.24;100.00;101143.84;6250325;28;20042;-73
2023/06/18 03:30:53;;;;;;;12.73;6.25;;;;;;;16.20;100.00;101147.66;6249622;28;20057;-74
2023/06/18 03:34:00;;;;;;;10.55;6.07;;;;;;;16.10;100.00;101143.13;6249994;28;20328;-73
2023/06/18 03:37:02;;;;;;;12.20;6.55;;;;;;;16.08;100.00;101142.38;6250335;28;20123;-73
2023/06/18 03:40:05;;;;;;;13.43;6.47;;;;;;;16.11;100.00;101143.00;6249405;28;20041;-74
2023/06/18 03:43:08;;;;;;;10.05;5.65;;;;;;;16.18;100.00;101146.09;6250036;28;20041;-74
2023/06/18 03:46:10;;;;;;;12.30;6.75;;;;;;;16.15;100.00;101147.16;6249897;28;20449;-73
2023/06/18 03:49:12;;;;;;;10.40;6.25;;;;;;;16.14;100.00;101150.75;6251200;28;20041;-74
2023/06/18 03:52:13;;;;;;;12.35;6.15;;;;;;;16.13;100.00;101148.22;6241545;28;20080;-73
2023/06/18 03:55:15;;;;;;;9.15;5.20;;;;;;;16.18;100.00;101143.44;6231675;28;20508;-73
2023/06/18 03:58:17;;;;;;;11.73;5.68;;;;;;;16.19;100.00;101153.09;6225616;28;20116;-73
2023/06/18 04:01:20;;;;;;;7.88;5.15;;;;;;;16.20;100.00;101158.28;6228430;28;20639;-73
2023/06/18 04:04:21;;;;;;;11.57;5.85;;;;;;;16.16;100.00;101153.28;6220103;28;20042;-74
2023/06/18 04:07:23;;;;;;;14.82;7.13;;;;;;;16.11;100.00;101144.81;6232703;28;20034;-74
2023/06/18 04:10:24;;;;;;;12.48;6.90;;;;;;;16.12;100.00;101146.50;6235479;28;20691;-74
2023/06/18 04:13:25;;;;;;;15.57;6.78;;;;;;;16.10;100.00;101149.28;6233796;28;20045;-73
2023/06/18 04:16:28;;;;;;;11.02;5.97;;;;;;;16.12;100.00;101144.69;6232954;28;20066;-74
2023/06/18 04:19:29;;;;;;;14.82;6.57;;;;;;;16.14;100.00;101148.13;6233795;28;20057;-73
2023/06/18 04:22:31;;;;;;;11.57;5.63;;;;;;;16.17;100.00;101139.94;6235051;28;20052;-74
2023/06/18 04:25:32;;;;;;;10.27;5.88;;;;;;;16.17;100.00;101155.03;6234001;28;20060;-74
2023/06/18 04:28:33;;;;;;;13.43;6.65;;;;;;;16.07;100.00;101159.25;6251976;28;20048;-73
2023/06/18 04:31:36;;;;;;;14.48;6.97;;;;;;;15.98;100.00;101156.28;6231922;28;20060;-73
2023/06/18 04:34:38;;;;;;;14.45;6.68;;;;;;;15.98;100.00;101166.88;6232051;28;20049;-73
2023/06/18 04:37:39;;;;;;;13.30;6.65;;;;;;;16.01;100.00;101164.97;6222610;28;20049;-73
2023/06/18 04:40:40;;;;;;;13.98;7.05;;;;;;;15.98;100.00;101161.56;6226689;28;20443;-73
2023/06/18 04:43:42;;;;;;;15.88;7.90;;;;;;;15.95;100.00;101155.66;6226826;28;20053;-73
2023/06/18 04:46:45;;;;;;;12.60;6.85;;;;;;;15.99;100.00;101151.84;6230210;28;20042;-74
2023/06/18 04:49:47;;;;;;;9.77;5.97;;;;;;;16.03;100.00;101155.94;6234631;28;20069;-73
2023/06/18 04:52:49;;;;;;;12.13;6.57;;;;;;;16.11;100.00;101158.94;6232054;28;20061;-74
2023/06/18 04:55:50;;;;;;;13.88;6.20;;;;;;;16.23;100.00;101163.38;6229956;28;20065;-73
2023/06/18 04:58:51;;;;;;;13.57;7.60;;;;;;;16.31;100.00;101165.50;6231433;28;20046;-74
2023/06/18 05:01:55;;;;;;;12.00;6.80;;;;;;;16.39;100.00;101163.13;6230859;28;20054;-73
2023/06/18 05:04:57;;;;;;;13.02;7.35;;;;;;;16.48;100.00;101172.25;6235223;28;20085;-84
2023/06/18 05:07:58;;;;;;;18.02;8.90;;;;;;;16.53;100.00;101167.44;6231810;28;20049;-74
2023/06/18 05:10:59;;;;;;;15.35;8.00;;;;;;;16.58;100.00;101161.81;6252434;28;20374;-74
2023/06/18 05:14:01;;;;;;;14.38;7.45;;;;;;;16.59;100.00;101169.69;6248341;28;20125;-73
2023/06/18 05:17:04;;;;;;;12.30;6.82;;;;;;;16.61;100.00;101165.09;6248306;28;20041;-73
2023/06/18 05:20:08;;;;;;;11.85;6.45;;;;;;;16.67;100.00;101169.97;6252317;28;20052;-73
2023/06/18 05:23:09;;;;;;;15.10;8.05;;;;;;;16.72;100.00;101169.69;6236596;28;20053;-74
2023/06/18 05:26:10;;;;;;;9.77;6.13;;;;;;;16.80;100.00;101167.28;6252747;28;20381;-73
2023/06/18 05:29:13;;;;;;;11.73;6.28;;;;;;;16.85;100.00;101169.63;6252829;28;20041;-74
2023/06/18 05:32:15;;;;;;;12.45;6.30;;;;;;;16.88;100.00;101172.06;6252016;28;20080;-74
2023/06/18 05:35:17;;;;;;;15.18;6.57;;;;;;;16.92;100.00;101173.53;6252641;28;20453;-74
2023/06/18 05:38:18;;;;;;;9.82;6.05;;;;;;;16.95;100.00;101171.50;6252530;28;20050;-73
2023/06/18 05:41:19;;;;;;;14.07;7.05;;;;;;;17.01;100.00;101172.84;6252007;28;20086;-73
2023/06/18 05:44:21;;;;;;;13.98;7.43;;;;;;;17.08;100.00;101174.09;6247619;28;20045;-73
2023/06/18 05:47:24;;;;;;;13.00;7.03;;;;;;;17.17;100.00;101178.75;6252250;28;20080;-73
2023/06/18 05:50:25;;;;;;;11.65;6.75;;;;;;;17.25;100.00;101186.97;6251780;28;20456;-73
2023/06/18 05:53:27;;;;;;;13.43;7.93;;;;;;;17.36;100.00;101180.88;6240701;28;20085;-73
2023/06/18 05:56:28;;;;;;;10.60;6.20;;;;;;;17.49;100.00;101189.63;6237744;28;20095;-74
2023/06/18 05:59:29;;;;;;;11.65;6.60;;;;;;;17.55;100.00;101187.47;6242529;28;20442;-73
2023/06/18 06:02:32;;;;;;;11.10;6.03;;;;;;;17.61;100.00;101179.84;6251447;28;20041;-73
2023/06/18 06:05:33;;;;;;;9.68;5.93;;;;;;;17.66;100.00;101182.16;6244929;28;20080;-74
2023/06/18 06:08:34;;;;;;;9.30;5.80;;;;;;;17.70;100.00;101178.31;6251912;28;20044;-73
2023/06/18 06:11:37;;;;;;;11.57;6.32;;;;;;;17.77;100.00;101181.38;6251057;28;20065;-73
2023/06/18 06:14:38;;;;;;;11.00;6.93;;;;;;;17.79;100.00;101182.94;6246019;28;20052;-73
2023/06/18 06:17:41;;;;;;;12.95;5.60;;;;;;;17.84;100.00;101177.28;6235645;28;20049;-73
2023/06/18 06:20:42;;;;;;;10.35;5.95;;;;;;;17.88;100.00;101170.75;6250567;28;20461;-74
2023/06/18 06:23:44;;;;;;;14.18;6.18;;;;;;;17.93;100.00;101169.44;6243926;28;20442;-73
2023/06/18 06:26:45;;;;;;;11.38;5.88;;;;;;;17.96;100.00;101169.19;6251299;28;20045;-73
2023/06/18 06:29:47;;;;;;;10.13;5.72;;;;;;;18.02;100.00;101173.19;6251318;28;20041;-74
2023/06/18 06:32:51;;;;;;;9.38;5.93;;;;;;;18.07;100.00;101178.16;6229345;28;20046;-73
2023/06/18 06:35:52;;;;;;;12.80;7.30;;;;;;;18.12;100.00;101176.84;6227566;28;20050;-73
2023/06/18 06:38:54;;;;;;;9.52;5.90;;;;;;;18.16;100.00;101185.41;6236951;28;20037;-73
2023/06/18 06:41:55;;;;;;;13.45;6.82;;;;;;;18.18;100.00;101184.34;6242243;28;20045;-73
2023/06/18 06:44:57;;;;;;;10.80;5.97;;;;;;;18.25;100.00;101184.69;6243876;28;20049;-73
2023/06/18 06:47:59;;;;;;;10.18;5.55;;;;;;;18.31;100.00;101194.88;6242875;28;20461;-74
2023/06/18 06:51:01;;;;;;;8.55;5.90;;;;;;;18.41;100.00;101197.66;6250173;28;20053;-74
2023/06/18 06:54:02;;;;;;;12.48;6.35;;;;;;;18.51;100.00;101202.13;6250635;28;20335;-73
2023/06/18 06:57:04;;;;;;;7.35;5.43;;;;;;;18.56;100.00;101207.06;6228172;28;20120;-74
2023/06/18 07:00:08;;;;;;;9.32;6.30;;;;;;;18.60;100.00;101207.69;6228547;28;20041;-74
2023/06/18 07:03:10;;;;;;;9.30;5.82;;;;;;;18.66;100.00;101213.34;6244576;28;20045;-74
2023/06/18 07:06:12;;;;;;;9.60;5.75;;;;;;;18.77;100.00;101217.88;6208840;28;20053;-78
2023/06/18 07:09:13;;;;;;;9.65;6.15;;;;;;;18.85;100.00;101204.78;6210342;28;20662;-80
2023/06/18 07:12:15;;;;;;;11.18;5.78;;;;;;;18.92;100.00;101203.31;6194722;28;20046;-76
2023/06/18 07:15:16;;;;;;;8.20;5.28;;;;;;;19.00;100.00;101200.88;6226708;28;20052;-74
2023/06/18 07:18:19;;;;;;;9.52;5.72;;;;;;;19.06;100.00;101196.00;6233922;28;20041;-73
2023/06/18 07:21:20;;;;;;;9.70;5.53;;;;;;;19.14;100.00;101201.56;6249520;28;20052;-74
2023/06/18 07:24:21;;;;;;;10.90;6.15;;;;;;;19.18;99.59;101197.66;6250169;28;20072;-73
2023/06/18 07:27:23;;;;;;;9.45;5.32;;;;;;;19.23;98.47;101188.31;6250502;28;20045;-74
2023/06/18 07:30:24;;;;;;;8.85;5.85;;;;;;;19.31;98.87;101192.19;6249763;28;20052;-74
2023/06/18 07:33:27;;;;;;;7.95;5.20;;;;;;;19.41;96.17;101195.75;6250164;28;20049;-73
2023/06/18 07:36:28;;;;;;;11.23;5.10;;;;;;;19.46;95.41;101196.22;6250337;28;20057;-74
2023/06/18 07:39:30;;;;;;;10.82;6.10;;;;;;;19.51;94.13;101192.19;6250218;28;20045;-74
2023/06/18 07:42:31;;;;;;;9.52;5.28;;;;;;;19.62;91.92;101188.66;6249463;28;20061;-74
2023/06/18 07:45:32;;;;;;;10.55;4.65;;;;;;;19.76;88.42;101190.16;6241565;28;20045;-73
2023/06/18 07:48:36;;;;;;;7.55;4.90;;;;;;;19.84;88.47;101193.00;6250149;28;20045;-73
2023/06/18 07:51:37;;;;;;;13.05;5.55;;;;;;;19.90;89.20;101184.50;6249366;28;20046;-73
2023/06/18 07:54:39;;;;;;;8.43;5.05;;;;;;;19.92;90.00;101182.53;6250226;28;20046;-74
2023/06/18 07:57:40;;;;;;;7.40;4.95;;;;;;;20.01;78.66;101179.06;6234075;28;20171;-74
2023/06/18 08:00:42;;;;;;;8.30;4.25;;;;;;;20.05;79.65;101173.47;6249259;28;20478;-74
2023/06/18 08:03:45;;;;;;;12.65;6.65;;;;;;;20.09;82.23;101183.75;6249958;28;20049;-74
2023/06/18 08:06:48;;;;;;;6.50;4.43;;;;;;;20.15;77.95;101177.88;6249726;28;20132;-74
2023/06/18 08:09:49;;;;;;;6.88;4.40;;;;;;;20.30;78.33;101169.50;6249937;28;20473;-74
2023/06/18 08:12:50;;;;;;;6.20;4.32;;;;;;;20.35;79.36;101165.47;6246625;28;20050;-74
2023/06/18 08:15:52;;;;;;;7.65;4.50;;;;;;;20.38;79.69;101172.34;6243286;28;20049;-74
2023/06/18 08:18:54;;;;;;;8.45;4.78;;;;;;;20.43;80.96;101173.63;6249762;28;20344;-74
2023/06/18 08:21:56;;;;;;;6.50;4.40;;;;;;;20.45;78.47;101170.84;6249197;28;20430;-74
2023/06/18 08:24:57;;;;;;;6.75;4.53;;;;;;;20.64;73.35;101172.75;6249668;28;20057;-74
2023/06/18 08:27:59;;;;;;;8.60;4.40;;;;;;;20.67;73.53;101165.31;6249600;28;20346;-73
2023/06/18 08:31:00;;;;;;;6.28;4.28;;;;;;;20.65;74.67;101166.44;6249021;28;20128;-74
2023/06/18 08:34:03;;;;;;;7.75;4.45;;;;;;;20.71;74.03;101160.53;6249452;28;20136;-74
2023/06/18 08:37:05;;;;;;;4.85;3.58;;;;;;;20.76;72.91;101163.66;6251811;28;20045;-74
2023/06/18 08:40:08;;;;;;;7.85;4.40;;;;;;;20.81;73.92;101164.09;6253287;28;20435;-74
2023/06/18 08:43:12;;;;;;;6.75;3.97;;;;;;;20.93;69.44;101160.28;6251193;28;20172;-74
2023/06/18 08:46:15;;;;;;;6.43;4.25;;;;;;;21.13;68.78;101168.34;6253786;28;20053;-73
2023/06/18 08:49:21;;;;;;;6.57;4.20;;;;;;;21.09;69.99;101162.44;6253917;28;20358;-74
2023/06/18 08:52:24;;;;;;;6.55;3.90;;;;;;;21.12;68.62;101155.94;6252958;28;20056;-73
2023/06/18 08:55:27;;;;;;;7.30;3.60;;;;;;;21.15;68.37;101161.84;6253708;28;20438;-73
2023/06/18 08:58:30;;;;;;;6.90;3.40;;;;;;;21.21;63.92;101152.41;6253609;28;20038;-74
2023/06/18 09:01:32;;;;;;;6.97;3.65;;;;;;;21.28;66.05;101150.88;6253142;28;20053;-73
2023/06/18 09:04:36;;;;;;;5.68;3.55;;;;;;;21.37;62.41;101152.75;6253365;28;20056;-74
2023/06/18 09:07:38;;;;;;;6.30;3.80;;;;;;;21.52;57.78;101150.47;6253524;28;20129;-74
2023/06/18 09:10:39;;;;;;;4.40;3.20;;;;;;;21.57;59.11;101155.38;6252708;28;20112;-74
2023/06/18 09:13:42;;;;;;;4.45;3.33;;;;;;;21.60;59.79;101149.75;6249957;28;20045;-73
2023/06/18 09:16:44;;;;;;;5.00;3.15;;;;;;;21.56;59.16;101148.34;6253374;28;20049;-73
2023/06/18 09:19:47;;;;;;;5.22;2.83;;;;;;;21.50;59.79;101150.63;6252945;28;20045;-73
2023/06/18 09:22:49;;;;;;;5.00;3.08;;;;;;;21.58;58.47;101157.94;6252402;28;20041;-74
2023/06/18 09:25:51;;;;;;;6.57;3.22;;;;;;;;;;6252947;28;20050;-73
2023/06/18 09:28:54;;;;;;;4.13;2.72;;;;;;;21.75;56.57;101146.47;6252978;28;20584;-73
2023/06/18 09:31:56;;;;;;;5.47;3.25;;;;;;;21.90;56.54;101148.72;6252127;28;20350;-74
2023/06/18 09:35:12;;;;;;;4.30;2.90;;;;;;;21.96;56.71;101150.78;6252818;28;20049;-74
2023/06/18 09:38:13;;;;;;;5.75;3.00;;;;;;;22.06;56.40;101140.91;6252693;28;20434;-74
2023/06/18 09:41:16;;;;;;;5.40;2.97;;;;;;;22.20;55.99;101153.00;6252187;28;20046;-74
2023/06/18 09:44:19;;;;;;;6.72;3.60;;;;;;;22.19;58.86;101144.13;6247499;28;20042;-73
2023/06/18 09:47:20;;;;;;;5.72;2.95;;;;;;;22.20;54.23;101136.94;6252273;28;20045;-74
2023/06/18 09:50:27;;;;;;;4.82;3.10;;;;;;;22.18;54.68;101137.09;6251542;28;20048;-74
2023/06/18 09:53:28;;;;;;;4.22;2.88;;;;;;;22.36;54.32;101136.31;6252473;28;20438;-74
2023/06/18 09:56:29;;;;;;;4.32;2.90;;;;;;;22.45;54.97;101122.84;6252291;28;20132;-74
2023/06/18 09:59:31;;;;;;;5.47;3.17;;;;;;;22.62;53.08;101126.56;6252445;28;20038;-73
2023/06/18 10:02:38;;;;;;;4.38;2.97;;;;;;;22.58;53.18;101127.84;6251458;28;20056;-74
2023/06/18 10:05:41;;;;;;;4.63;2.90;;;;;;;22.73;52.86;101128.19;6251927;28;20041;-74
2023/06/18 10:08:44;;;;;;;5.80;3.17;;;;;;;22.69;54.59;101129.47;6236235;28;20739;-74
2023/06/18 10:11:49;;;;;;;4.47;2.90;;;;;;;22.68;55.64;101125.94;6251161;28;20049;-74
2023/06/18 10:14:55;;;;;;;5.70;3.00;;;;;;;22.80;54.08;101121.22;6246486;28;20045;-74
2023/06/18 10:17:58;;;;;;;5.32;2.95;;;;;;;23.11;50.98;101121.69;6251645;28;20434;-74
2023/06/18 10:21:04;;;;;;;5.45;3.33;;;;;;;23.10;52.31;101122.69;6251174;28;20056;-74
2023/06/18 10:24:12;;;;;;;4.72;3.08;;;;;;;23.11;52.30;101119.00;6251454;28;20072;-73
2023/06/18 10:27:15;;;;;;;3.70;3.00;;;;;;;23.39;52.28;101111.72;6251698;28;20446;-73
2023/06/18 10:30:17;;;;;;;5.22;3.05;;;;;;;23.62;47.48;101111.19;6250576;28;20191;-73
2023/06/18 10:33:18;;;;;;;5.05;2.92;;;;;;;23.67;46.08;101115.13;6251361;28;20052;-73
2023/06/18 10:36:21;;;;;;;3.55;2.45;;;;;;;23.72;45.74;101112.81;6251175;28;20050;-73
2023/06/18 10:39:23;;;;;;;3.60;2.40;;;;;;;23.69;45.72;101106.91;6251354;28;20049;-74
2023/06/18 10:42:25;;;;;;;6.05;2.75;;;;;;;23.72;43.54;101112.81;6245332;28;20350;-74
2023/06/18 10:45:26;;;;;;;4.60;2.90;;;;;;;23.61;45.20;101110.34;6249229;28;20052;-73
2023/06/18 10:48:28;;;;;;;4.35;2.80;;;;;;;23.59;46.97;101107.00;6250920;28;20049;-73
2023/06/18 10:51:31;;;;;;;5.22;3.17;;;;;;;23.70;47.02;101100.53;6246179;28;20045;-74
2023/06/18 10:54:33;;;;;;;6.07;2.95;;;;;;;23.84;48.28;101089.22;6250807;28;20420;-73
2023/06/18 10:57:39;;;;;;;5.78;2.42;;;;;;;24.01;47.49;101082.09;6250726;28;20053;-73
2023/06/18 11:00:41;;;;;;;3.83;2.53;;;;;;;24.18;45.95;101077.63;6249589;28;20099;-73
2023/06/18 11:03:43;;;;;;;4.70;2.58;;;;;;;24.17;45.89;101068.72;6250479;28;20048;-73
2023/06/18 11:06:45;;;;;;;3.83;2.67;;;;;;;24.15;47.17;101069.88;6250776;28;20045;-73
2023/06/18 11:09:49;;;;;;;2.35;1.92;;;;;;;24.19;46.70;101068.56;6228227;28;20042;-73
2023/06/18 11:12:50;;;;;;;3.28;2.53;;;;;;;24.36;47.77;101066.78;6236890;28;20049;-73
2023/06/18 11:15:54;;;;;;;4.80;2.75;;;;;;;24.70;44.87;101075.59;6250542;28;20435;-73
2023/06/18 11:19:02;;;;;;;4.20;2.67;;;;;;;24.98;39.85;101077.97;6250678;28;20051;-73
2023/06/18 11:22:05;;;;;;;4.80;2.28;;;;;;;24.85;43.48;101073.13;6249841;28;20561;-73
2023/06/18 11:25:08;;;;;;;3.70;2.30;;;;;;;25.36;41.24;101073.81;6250508;28;20045;-73
2023/06/18 11:28:12;;;;;;;3.28;1.90;;;;;;;25.44;41.18;101075.66;6250391;28;20049;-73
2023/06/18 11:31:13;;;;;;;3.75;2.22;;;;;;;25.43;42.63;101071.25;6244674;28;20234;-76
2023/06/18 11:34:15;;;;;;;6.85;2.78;;;;;;;25.56;41.55;101063.50;6223952;28;20046;-77
2023/06/18 11:37:18;;;;;;;5.18;2.13;;;;;;;25.58;39.68;101066.03;6227506;28;20048;-77
2023/06/18 11:40:19;;;;;;;3.53;1.90;;;;;;;25.54;41.20;101054.75;6216593;28;20068;-76
2023/06/18 11:43:22;;;;;;;3.47;2.28;;;;;;;25.60;40.32;101045.97;6211897;28;20046;-76
2023/06/18 11:46:28;;;;;;;4.15;2.05;;;;;;;25.70;40.70;101043.09;6210483;28;20057;-74
2023/06/18 11:49:29;;;;;;;4.38;2.65;;;;;;;25.78;38.46;101041.25;6207475;28;20053;-74
2023/06/18 11:52:34;;;;;;;5.00;2.20;;;;;;;25.85;38.49;101027.94;6212814;28;20383;-73
2023/06/18 11:55:36;;;;;;;2.60;2.17;;;;;;;25.76;40.67;101026.28;6242472;28;20045;-74
2023/06/18 11:58:39;;;;;;;5.60;2.30;;;;;;;25.52;40.53;101032.53;6249637;28;20053;-73
2023/06/18 12:01:41;;;;;;;3.67;2.28;;;;;;;25.54;39.33;101035.91;6249121;28;20050;-73
2023/06/18 12:04:44;;;;;;;4.63;2.20;;;;;;;25.87;40.19;101033.13;6249988;28;20045;-77
2023/06/18 12:07:47;;;;;;;4.03;2.60;;;;;;;26.04;41.66;101032.06;6249380;28;20472;-73
2023/06/18 12:10:48;;;;;;;4.35;2.78;;;;;;;26.21;38.54;101024.75;6251275;28;20069;-73
2023/06/18 12:13:54;;;;;;;4.00;2.42;;;;;;;26.28;36.71;101025.69;6251502;28;20038;-73
2023/06/18 12:16:59;;;;;;;4.68;2.72;;;;;;;26.35;38.91;101029.38;6254424;28;20071;-73
2023/06/18 12:20:07;;;;;;;3.33;2.30;;;;;;;26.59;37.41;101032.94;6253970;28;20049;-73
2023/06/18 12:23:11;;;;;;;4.72;2.67;;;;;;;26.64;38.13;101030.53;6244357;28;20045;-73
2023/06/18 12:26:13;;;;;;;4.10;2.40;;;;;;;26.69;36.38;101031.66;6228629;28;20374;-73
2023/06/18 12:29:14;;;;;;;4.18;2.72;;;;;;;26.68;37.92;101021.06;6250448;28;20438;-73
2023/06/18 12:32:16;;;;;;;3.13;2.40;;;;;;;26.66;35.19;101023.09;6253561;28;20357;-73
2023/06/18 12:35:21;;;;;;;8.40;2.75;;;;;;;26.40;37.66;101023.44;6253980;28;20041;-73
2023/06/18 12:38:25;;;;;;;3.10;2.42;;;;;;;26.11;39.83;101019.53;6244371;28;20042;-73
2023/06/18 12:41:26;;;;;;;4.75;2.65;;;;;;;26.19;39.10;101016.81;6228433;28;20061;-74
2023/06/18 12:44:28;;;;;;;5.50;3.15;;;;;;;26.42;40.32;101034.88;6235723;28;20041;-73
2023/06/18 12:47:29;;;;;;;7.07;3.28;;;;;;;26.39;39.95;101025.31;6249303;28;20459;-73
2023/06/18 12:50:45;;;;;;;4.05;2.70;;;;;;;26.38;39.80;101020.06;6253096;28;20037;-73
2023/06/18 12:53:47;;;;;;;4.65;2.47;;;;;;;26.33;39.57;101026.00;6252867;28;20052;-73
2023/06/18 12:56:50;;;;;;;7.35;2.60;;;;;;;26.31;39.64;101020.78;6238463;28;20045;-73
2023/06/18 12:59:52;;;;;;;4.30;2.85;;;;;;;26.30;40.54;101020.97;6253534;28;20060;-73
2023/06/18 13:02:54;;;;;;;5.30;2.58;;;;;;;26.23;40.71;101007.38;6252617;28;20457;-73
2023/06/18 13:05:57;;;;;;;5.63;2.50;;;;;;;26.17;39.57;101004.56;6253447;28;20045;-72
2023/06/18 13:08:59;;;;;;;4.40;2.50;;;;;;;26.21;40.61;101005.88;6250010;28;20064;-73
2023/06/18 13:12:01;;;;;;;4.22;2.60;;;;;;;26.23;39.28;101001.13;6229638;28;21104;-73
2023/06/18 13:15:02;;;;;;;4.13;2.72;;;;;;;26.23;39.05;100998.44;6247656;28;20046;-72
2023/06/18 13:18:04;;;;;;;3.30;2.10;;;;;;;26.22;39.55;101005.69;6253264;28;20049;-73
2023/06/18 13:21:05;;;;;;;4.55;2.83;;;;;;;26.18;38.96;100993.59;6252297;28;20052;-72
2023/06/18 13:24:08;;;;;;;4.70;2.83;;;;;;;26.26;38.26;101000.78;6252314;28;20338;-73
2023/06/18 13:27:10;;;;;;;5.90;3.45;;;;;;;26.40;39.01;101004.56;6252802;28;20483;-73
2023/06/18 13:30:12;;;;;;;6.30;3.17;;;;;;;26.47;38.29;100998.31;6252266;28;20041;-73
2023/06/18 13:33:13;;;;;;;5.45;2.78;;;;;;;26.44;39.52;100995.97;6230869;28;20049;-73
2023/06/18 13:36:15;;;;;;;5.40;3.03;;;;;;;26.41;39.28;100993.59;6246431;28;20052;-73
2023/06/18 13:39:18;;;;;;;4.43;2.85;;;;;;;26.29;37.84;100989.63;6252620;28;20045;-73
2023/06/18 13:42:19;;;;;;;3.45;2.50;;;;;;;26.20;39.63;100983.47;6225283;28;20050;-73
2023/06/18 13:45:20;;;;;;;4.93;2.70;;;;;;;26.20;39.41;100979.94;6249318;28;20061;-73
2023/06/18 13:48:22;;;;;;;4.95;2.75;;;;;;;26.36;38.78;100979.84;6249011;28;20045;-73
2023/06/18 13:51:23;;;;;;;4.30;2.55;;;;;;;26.57;38.25;100987.28;6251572;28;20064;-73
2023/06/18 13:54:27;;;;;;;4.40;2.95;;;;;;;26.59;38.39;100985.25;6252096;28;20052;-73
2023/06/18 13:57:28;;;;;;;6.13;2.75;;;;;;;26.52;38.70;100978.88;6252254;28;20045;-73
2023/06/18 14:00:30;;;;;;;3.85;2.55;;;;;;;26.49;38.66;100985.50;6251348;28;20048;-73